createdAt,value
2023-03-19T00:02:17.559Z,2.70
2023-03-19T00:04:46.593Z,2.63
2023-03-19T00:07:14.704Z,2.97
2023-03-19T00:09:43.078Z,3.37
2023-03-19T00:12:12.976Z,2.67
2023-03-19T00:14:41.143Z,2.50
2023-03-19T00:17:09.284Z,2.97
2023-03-19T00:19:37.362Z,2.67
2023-03-19T00:22:05.562Z,3.17
2023-03-19T00:24:34.538Z,3.83
2023-03-19T00:27:03.638Z,2.60
2023-03-19T00:29:33.187Z,2.80
2023-03-19T00:32:01.196Z,2.10
2023-03-19T00:34:29.155Z,3.17
2023-03-19T00:36:57.337Z,3.73
2023-03-19T00:39:25.364Z,2.87
2023-03-19T00:41:53.540Z,3.70
2023-03-19T00:44:21.472Z,3.23
2023-03-19T00:46:50.724Z,2.60
2023-03-19T00:49:18.623Z,2.97
2023-03-19T00:51:47.044Z,3.37
2023-03-19T00:54:15.033Z,2.80
2023-03-19T00:56:42.968Z,2.87
2023-03-19T00:59:10.930Z,3.70
2023-03-19T01:01:39.149Z,3.00
2023-03-19T01:04:08.652Z,3.93
2023-03-19T01:06:36.681Z,2.90
2023-03-19T01:09:05.689Z,2.97
2023-03-19T01:11:33.713Z,3.57
2023-03-19T01:14:02.454Z,3.60
2023-03-19T01:16:30.433Z,4.33
2023-03-19T01:18:58.948Z,4.37
2023-03-19T01:21:30.929Z,3.40
2023-03-19T01:23:58.891Z,3.43
2023-03-19T01:26:28.181Z,3.57
2023-03-19T01:29:01.509Z,3.27
2023-03-19T01:31:30.048Z,4.63
2023-03-19T01:34:18.243Z,4.40
2023-03-19T01:36:52.535Z,3.93
2023-03-19T01:39:27.616Z,3.30
2023-03-19T01:41:56.148Z,3.27
2023-03-19T01:44:47.779Z,4.50
2023-03-19T01:47:30.947Z,4.20
2023-03-19T01:50:27.216Z,5.17
2023-03-19T01:53:16.402Z,4.30
2023-03-19T01:55:50.349Z,5.07
2023-03-19T01:58:32.245Z,3.40
2023-03-19T02:01:09.264Z,3.37
2023-03-19T02:03:43.336Z,3.43
2023-03-19T02:06:22.044Z,4.60
2023-03-19T02:08:53.481Z,3.37
2023-03-19T02:11:22.481Z,4.07
2023-03-19T02:13:50.606Z,4.17
2023-03-19T02:16:19.211Z,3.97
2023-03-19T02:18:49.472Z,4.47
2023-03-19T02:21:18.626Z,3.70
2023-03-19T02:23:54.742Z,4.80
2023-03-19T02:26:37.997Z,4.47
2023-03-19T02:29:06.296Z,4.60
2023-03-19T02:31:36.571Z,5.00
2023-03-19T02:34:07.881Z,4.13
2023-03-19T02:36:39.729Z,4.80
2023-03-19T02:39:21.130Z,4.20
2023-03-19T02:41:52.158Z,5.23
2023-03-19T02:44:20.764Z,5.00
2023-03-19T02:46:51.580Z,4.50
2023-03-19T02:49:20.174Z,5.93
2023-03-19T02:51:49.170Z,4.77
2023-03-19T02:54:17.125Z,4.50
2023-03-19T02:56:46.070Z,5.20
2023-03-19T02:59:15.506Z,6.10
2023-03-19T03:01:43.489Z,5.47
2023-03-19T03:04:12.022Z,5.17
2023-03-19T03:06:39.911Z,4.70
2023-03-19T03:09:07.864Z,6.57
2023-03-19T03:11:35.759Z,8.23
2023-03-19T03:14:03.737Z,5.33
2023-03-19T03:16:33.138Z,6.17
2023-03-19T03:19:02.453Z,6.33
2023-03-19T03:21:30.353Z,5.27
2023-03-19T03:23:58.252Z,4.80
2023-03-19T03:26:27.080Z,5.13
2023-03-19T03:28:55.160Z,5.13
2023-03-19T03:31:23.619Z,4.80
2023-03-19T03:33:52.997Z,5.83
2023-03-19T03:36:21.480Z,5.97
2023-03-19T03:38:49.432Z,5.67
2023-03-19T03:41:17.521Z,5.70
2023-03-19T03:43:45.967Z,4.87
2023-03-19T03:46:14.673Z,6.63
2023-03-19T03:48:42.646Z,5.83
2023-03-19T03:51:12.027Z,5.27
2023-03-19T03:53:40.337Z,5.43
2023-03-19T03:56:09.310Z,5.73
2023-03-19T03:58:37.816Z,6.37
2023-03-19T04:01:06.026Z,5.30
2023-03-19T04:03:34.200Z,5.50
2023-03-19T04:06:02.383Z,5.93
2023-03-19T04:08:32.131Z,6.43
2023-03-19T04:11:00.012Z,6.13
2023-03-19T04:13:28.678Z,6.23
2023-03-19T04:15:57.339Z,4.90
2023-03-19T04:18:25.801Z,5.77
2023-03-19T04:20:53.741Z,5.63
2023-03-19T04:23:21.632Z,5.83
2023-03-19T04:25:51.157Z,5.87
2023-03-19T04:28:19.154Z,5.67
2023-03-19T04:30:47.233Z,5.90
2023-03-19T04:33:15.149Z,6.30
2023-03-19T04:35:43.023Z,6.03
2023-03-19T04:38:11.324Z,6.20
2023-03-19T04:40:39.388Z,6.90
2023-03-19T04:43:10.432Z,7.97
2023-03-19T04:45:39.398Z,6.47
2023-03-19T04:48:07.564Z,8.60
2023-03-19T04:50:37.234Z,6.87
2023-03-19T04:53:06.138Z,6.13
2023-03-19T04:55:34.134Z,7.20
2023-03-19T04:58:08.919Z,6.80
2023-03-19T05:00:39.094Z,7.63
2023-03-19T05:03:08.077Z,8.60
2023-03-19T05:05:37.233Z,6.73
2023-03-19T05:08:09.345Z,7.63
2023-03-19T05:10:38.511Z,8.10
2023-03-19T05:13:07.845Z,6.33
2023-03-19T05:15:43.295Z,5.70
2023-03-19T05:18:12.828Z,6.87
2023-03-19T05:20:44.385Z,6.27
2023-03-19T05:23:24.210Z,7.83
2023-03-19T05:25:59.733Z,7.27
2023-03-19T05:28:47.793Z,7.70
2023-03-19T05:31:20.891Z,7.50
2023-03-19T05:33:52.306Z,7.67
2023-03-19T05:36:20.566Z,7.70
2023-03-19T05:38:58.415Z,7.07
2023-03-19T05:41:32.138Z,8.80
2023-03-19T05:44:04.241Z,8.53
2023-03-19T05:46:59.690Z,8.23
2023-03-19T05:49:31.523Z,10.67
2023-03-19T05:51:59.498Z,9.30
2023-03-19T05:54:27.470Z,8.90
2023-03-19T05:57:08.013Z,8.67
2023-03-19T05:59:42.288Z,8.87
2023-03-19T06:02:28.233Z,9.07
2023-03-19T06:05:12.055Z,9.73
2023-03-19T06:07:40.260Z,8.93
2023-03-19T06:10:14.557Z,10.20
2023-03-19T06:12:43.107Z,13.07
2023-03-19T06:15:22.638Z,11.33
2023-03-19T06:18:14.186Z,9.10
2023-03-19T06:20:42.253Z,10.03
2023-03-19T06:23:10.709Z,9.60
2023-03-19T06:25:38.641Z,10.60
2023-03-19T06:28:07.805Z,10.40
2023-03-19T06:30:40.351Z,10.93
2023-03-19T06:33:32.137Z,10.33
2023-03-19T06:36:00.726Z,11.57
2023-03-19T06:38:30.813Z,10.50
2023-03-19T06:40:58.878Z,11.10
2023-03-19T06:43:26.874Z,10.53
2023-03-19T06:45:54.914Z,12.23
2023-03-19T06:48:22.829Z,11.90
2023-03-19T06:50:52.040Z,12.90
2023-03-19T06:53:19.979Z,12.63
2023-03-19T06:55:48.000Z,10.07
2023-03-19T06:58:15.918Z,12.10
2023-03-19T07:00:44.056Z,12.30
2023-03-19T07:03:12.326Z,11.83
2023-03-19T07:05:40.288Z,12.17
2023-03-19T07:08:11.952Z,10.87
2023-03-19T07:10:40.008Z,12.90
2023-03-19T07:13:08.257Z,14.82
2023-03-19T07:15:36.611Z,14.63
2023-03-19T07:18:05.113Z,12.40
2023-03-19T07:20:33.168Z,11.67
2023-03-19T07:23:01.341Z,12.03
2023-03-19T07:25:30.645Z,11.90
2023-03-19T07:27:58.692Z,13.03
2023-03-19T07:30:26.563Z,10.80
2023-03-19T07:32:54.540Z,7.87
2023-03-19T07:35:22.646Z,8.00
2023-03-19T07:37:50.774Z,7.43
2023-03-19T07:40:18.942Z,9.70
2023-03-19T07:42:48.154Z,10.03
2023-03-19T07:45:16.038Z,8.93
2023-03-19T07:47:44.010Z,5.57
2023-03-19T07:50:12.548Z,7.30
2023-03-19T07:52:40.577Z,9.63
2023-03-19T07:55:09.115Z,9.27
2023-03-19T07:57:37.033Z,5.57
2023-03-19T08:00:08.069Z,5.03
2023-03-19T08:02:42.650Z,5.50
2023-03-19T08:05:11.552Z,6.63
2023-03-19T08:07:39.438Z,6.97
2023-03-19T08:10:08.698Z,4.17
2023-03-19T08:12:40.973Z,5.93
2023-03-19T08:15:12.606Z,10.80
2023-03-19T08:17:40.760Z,6.43
2023-03-19T08:20:11.690Z,6.23
2023-03-19T08:22:40.410Z,11.30
2023-03-19T08:25:09.593Z,7.70
2023-03-19T08:27:37.818Z,5.20
2023-03-19T08:30:07.136Z,4.37
2023-03-19T08:32:36.839Z,7.50
2023-03-19T08:35:06.077Z,7.00
2023-03-19T08:37:34.160Z,5.63
2023-03-19T08:40:02.160Z,5.23
2023-03-19T08:42:30.239Z,6.93
2023-03-19T08:44:58.151Z,9.77
2023-03-19T08:47:26.141Z,7.00
2023-03-19T08:49:55.859Z,6.83
2023-03-19T08:52:24.631Z,9.00
2023-03-19T08:54:52.948Z,7.43
2023-03-19T08:57:21.224Z,4.13
2023-03-19T08:59:49.123Z,9.63
2023-03-19T09:02:17.061Z,6.93
2023-03-19T09:04:45.327Z,9.83
2023-03-19T09:07:15.864Z,7.00
2023-03-19T09:09:44.826Z,8.37
2023-03-19T09:12:15.227Z,6.03
2023-03-19T09:14:43.564Z,6.40
2023-03-19T09:17:13.314Z,8.10
2023-03-19T09:19:41.665Z,8.27
2023-03-19T09:22:09.623Z,12.43
2023-03-19T09:24:40.654Z,6.20
2023-03-19T09:27:09.061Z,6.00
2023-03-19T09:29:36.984Z,9.33
2023-03-19T09:32:05.875Z,9.83
2023-03-19T09:34:33.824Z,6.43
2023-03-19T09:37:01.756Z,8.00
2023-03-19T09:39:30.240Z,7.63
2023-03-19T09:42:10.126Z,7.67
2023-03-19T09:44:39.815Z,11.27
2023-03-19T09:47:25.773Z,8.30
2023-03-19T09:49:57.639Z,6.70
2023-03-19T09:52:45.003Z,7.00
2023-03-19T09:55:26.864Z,9.63
2023-03-19T09:57:58.798Z,8.93
2023-03-19T10:00:29.681Z,9.10
2023-03-19T10:03:03.994Z,5.73
2023-03-19T10:05:43.405Z,6.63
2023-03-19T10:08:29.346Z,7.97
2023-03-19T10:11:10.285Z,6.53
2023-03-19T10:13:52.676Z,7.43
2023-03-19T10:16:23.581Z,9.53
2023-03-19T10:18:53.717Z,4.70
2023-03-19T10:21:27.480Z,7.57
2023-03-19T10:23:58.749Z,9.47
2023-03-19T10:26:31.285Z,7.10
2023-03-19T10:29:08.164Z,7.37
2023-03-19T10:31:50.785Z,4.27
2023-03-19T10:34:31.199Z,10.20
2023-03-19T10:37:01.454Z,6.47
2023-03-19T10:39:30.670Z,6.93
2023-03-19T10:42:07.700Z,9.10
2023-03-19T10:44:42.273Z,5.80
2023-03-19T10:47:14.572Z,7.13
2023-03-19T10:49:43.373Z,6.03
2023-03-19T10:52:21.850Z,7.67
2023-03-19T10:54:55.263Z,6.00
2023-03-19T10:57:26.737Z,7.17
2023-03-19T10:59:56.266Z,3.93
2023-03-19T11:02:31.007Z,5.63
2023-03-19T11:05:10.205Z,6.00
2023-03-19T11:07:38.725Z,6.23
2023-03-19T11:10:13.528Z,5.60
2023-03-19T11:12:41.505Z,7.53
2023-03-19T11:15:21.131Z,9.70
2023-03-19T11:17:51.262Z,5.87
2023-03-19T11:20:27.615Z,5.43
2023-03-19T11:22:58.705Z,6.43
2023-03-19T11:25:29.331Z,5.20
2023-03-19T11:28:03.538Z,5.90
2023-03-19T11:30:41.022Z,4.93
2023-03-19T11:33:36.470Z,5.10
2023-03-19T11:36:13.891Z,6.23
2023-03-19T11:38:55.194Z,5.23
2023-03-19T11:41:34.758Z,5.73
2023-03-19T11:44:06.435Z,6.30
2023-03-19T11:46:46.216Z,4.90
2023-03-19T11:49:39.045Z,5.40
2023-03-19T11:52:15.864Z,5.80
2023-03-19T11:54:53.427Z,5.07
2023-03-19T11:57:33.549Z,6.57
2023-03-19T12:00:10.846Z,6.47
2023-03-19T12:03:09.850Z,6.60
2023-03-19T12:05:47.231Z,4.07
2023-03-19T12:08:26.367Z,3.77
2023-03-19T12:11:02.750Z,4.47
2023-03-19T12:13:38.857Z,5.80
2023-03-19T12:16:16.974Z,5.10
2023-03-19T12:19:11.606Z,7.47
2023-03-19T12:21:52.708Z,5.30
2023-03-19T12:24:33.481Z,5.43
2023-03-19T12:27:14.503Z,4.03
2023-03-19T12:29:49.185Z,3.13
2023-03-19T12:32:32.403Z,5.10
2023-03-19T12:35:05.791Z,4.57
2023-03-19T12:37:38.135Z,6.83
2023-03-19T12:40:23.731Z,6.87
2023-03-19T12:42:51.856Z,4.83
2023-03-19T12:45:30.432Z,4.93
2023-03-19T12:48:01.713Z,4.43
2023-03-19T12:50:33.264Z,4.57
2023-03-19T12:53:03.138Z,4.87
2023-03-19T12:55:38.361Z,5.10
2023-03-19T12:58:13.428Z,6.17
2023-03-19T13:00:50.712Z,3.50
2023-03-19T13:03:23.856Z,6.43
2023-03-19T13:05:59.420Z,4.00
2023-03-19T13:08:34.134Z,4.33
2023-03-19T13:11:06.224Z,7.57
2023-03-19T13:13:42.538Z,6.40
2023-03-19T13:16:22.984Z,4.37
2023-03-19T13:18:59.937Z,5.20
2023-03-19T13:21:33.646Z,8.23
2023-03-19T13:24:10.665Z,5.73
2023-03-19T13:26:39.212Z,6.77
2023-03-19T13:29:17.044Z,7.27
2023-03-19T13:31:46.204Z,9.67
2023-03-19T13:34:25.404Z,9.87
2023-03-19T13:37:01.785Z,8.73
2023-03-19T13:39:33.091Z,7.73
2023-03-19T13:42:25.081Z,9.70
2023-03-19T13:44:57.099Z,8.47
2023-03-19T13:47:42.476Z,9.43
2023-03-19T13:50:27.196Z,7.80
2023-03-19T13:53:20.220Z,8.47
2023-03-19T13:55:54.577Z,10.37
2023-03-19T13:58:48.439Z,11.73
2023-03-19T14:01:39.999Z,11.07
2023-03-19T14:04:20.802Z,10.53
2023-03-19T14:06:50.463Z,14.63
2023-03-19T14:09:36.906Z,12.13
2023-03-19T14:12:23.414Z,14.23
2023-03-19T14:14:54.898Z,13.97
2023-03-19T14:17:26.193Z,6.90
2023-03-19T14:19:55.409Z,10.87
2023-03-19T14:22:34.738Z,9.40
2023-03-19T14:25:17.732Z,8.30
2023-03-19T14:27:48.651Z,7.60
2023-03-19T14:30:30.640Z,7.83
2023-03-19T14:33:03.977Z,6.70
2023-03-19T14:35:36.652Z,8.60
2023-03-19T14:38:13.537Z,7.03
2023-03-19T14:40:46.601Z,7.60
2023-03-19T14:43:21.832Z,9.97
2023-03-19T14:45:59.714Z,10.80
2023-03-19T14:48:52.990Z,11.33
2023-03-19T14:51:43.035Z,13.03
2023-03-19T14:54:26.611Z,12.07
2023-03-19T14:56:57.150Z,13.27
2023-03-19T14:59:25.147Z,14.27
2023-03-19T15:01:54.604Z,9.77
2023-03-19T15:04:25.520Z,14.70
2023-03-19T15:06:56.828Z,14.43
2023-03-19T15:09:29.742Z,15.27
2023-03-19T15:12:36.650Z,13.10
2023-03-19T15:15:21.201Z,15.03
2023-03-19T15:18:03.209Z,15.57
2023-03-19T15:20:37.431Z,13.33
2023-03-19T15:23:23.348Z,12.20
2023-03-19T15:25:56.915Z,8.53
2023-03-19T15:28:28.203Z,9.30
2023-03-19T15:31:05.938Z,9.53
2023-03-19T15:33:42.541Z,10.23
2023-03-19T15:36:18.052Z,10.53
2023-03-19T15:38:50.083Z,11.83
2023-03-19T15:41:19.607Z,11.30
2023-03-19T15:43:49.511Z,14.83
2023-03-19T15:46:21.591Z,16.23
2023-03-19T15:48:53.041Z,13.23
2023-03-19T15:51:23.746Z,14.07
2023-03-19T15:53:51.940Z,14.80
2023-03-19T15:56:21.470Z,14.03
2023-03-19T15:58:53.438Z,19.87
2023-03-19T16:01:22.506Z,19.97
2023-03-19T16:03:56.057Z,18.20
2023-03-19T16:06:27.302Z,18.47
2023-03-19T16:08:57.367Z,21.63
2023-03-19T16:11:31.229Z,18.17
2023-03-19T16:14:01.819Z,20.60
2023-03-19T16:16:32.183Z,21.20
2023-03-19T16:19:00.490Z,23.83
2023-03-19T16:21:36.177Z,19.47
2023-03-19T16:24:15.720Z,18.70
2023-03-19T16:26:45.237Z,19.53
2023-03-19T16:29:21.895Z,19.73
2023-03-19T16:31:52.810Z,16.83
2023-03-19T16:34:32.331Z,15.07
2023-03-19T16:37:00.996Z,18.27
2023-03-19T16:39:34.972Z,15.27
2023-03-19T16:42:30.798Z,15.40
2023-03-19T16:45:04.748Z,13.73
2023-03-19T16:47:32.616Z,16.83
2023-03-19T16:50:00.692Z,11.83
2023-03-19T16:52:28.672Z,13.63
2023-03-19T16:54:58.780Z,12.33
2023-03-19T16:57:26.982Z,11.43
2023-03-19T16:59:55.260Z,12.13
2023-03-19T17:02:24.620Z,11.70
2023-03-19T17:04:52.613Z,12.13
2023-03-19T17:07:20.607Z,13.63
2023-03-19T17:09:48.482Z,15.97
2023-03-19T17:12:18.389Z,13.23
2023-03-19T17:14:53.333Z,10.90
2023-03-19T17:17:21.971Z,10.40
2023-03-19T17:19:51.479Z,12.23
2023-03-19T17:22:19.441Z,12.13
2023-03-19T17:24:47.633Z,13.13
2023-03-19T17:27:16.660Z,11.23
2023-03-19T17:29:44.652Z,10.77
2023-03-19T17:32:18.750Z,12.80
2023-03-19T17:34:46.844Z,14.83
2023-03-19T17:37:16.121Z,12.90
2023-03-19T17:39:45.739Z,11.90
2023-03-19T17:42:19.582Z,13.10
2023-03-19T17:44:47.536Z,13.43
2023-03-19T17:47:16.836Z,13.13
2023-03-19T17:49:45.553Z,14.93
2023-03-19T17:52:17.449Z,16.23
2023-03-19T17:54:45.887Z,15.30
2023-03-19T17:57:15.562Z,15.90
2023-03-19T17:59:43.488Z,15.80
2023-03-19T18:02:24.445Z,14.83
2023-03-19T18:04:52.786Z,13.10
2023-03-19T18:07:22.189Z,12.83
2023-03-19T18:09:50.185Z,12.17
2023-03-19T18:12:18.057Z,11.37
2023-03-19T18:14:45.966Z,12.00
2023-03-19T18:17:16.932Z,11.87
2023-03-19T18:19:47.463Z,8.70
2023-03-19T18:22:17.179Z,12.00
2023-03-19T18:24:46.493Z,8.33
2023-03-19T18:27:14.599Z,8.10
2023-03-19T18:29:42.496Z,7.07
2023-03-19T18:32:15.804Z,7.13
2023-03-19T18:34:43.880Z,9.60
2023-03-19T18:37:16.501Z,6.33
2023-03-19T18:39:45.775Z,6.40
2023-03-19T18:42:14.574Z,6.87
2023-03-19T18:44:42.913Z,7.43
2023-03-19T18:47:15.436Z,8.57
2023-03-19T18:49:44.614Z,7.73
2023-03-19T18:52:17.856Z,6.67
2023-03-19T18:54:48.457Z,6.37
2023-03-19T18:57:17.911Z,6.57
2023-03-19T18:59:46.276Z,6.30
2023-03-19T19:02:22.638Z,5.73
2023-03-19T19:04:50.626Z,6.83
2023-03-19T19:07:18.570Z,8.47
2023-03-19T19:09:47.843Z,6.87
2023-03-19T19:12:18.701Z,6.47
2023-03-19T19:14:47.851Z,5.97
2023-03-19T19:17:18.223Z,5.40
2023-03-19T19:19:46.227Z,7.70
2023-03-19T19:22:16.428Z,7.07
2023-03-19T19:24:44.501Z,6.20
2023-03-19T19:27:17.210Z,6.13
2023-03-19T19:29:45.436Z,5.73
2023-03-19T19:32:20.618Z,5.87
2023-03-19T19:34:48.582Z,6.60
2023-03-19T19:37:18.749Z,5.97
2023-03-19T19:39:46.753Z,7.50
2023-03-19T19:42:18.040Z,6.20
2023-03-19T19:44:51.787Z,6.83
2023-03-19T19:47:19.926Z,5.37
2023-03-19T19:49:47.834Z,6.27
2023-03-19T19:52:17.216Z,5.37
2023-03-19T19:54:46.108Z,6.20
2023-03-19T19:57:19.495Z,5.57
2023-03-19T19:59:47.962Z,6.37
2023-03-19T20:02:23.006Z,5.87
2023-03-19T20:04:51.118Z,5.27
2023-03-19T20:07:19.020Z,6.33
2023-03-19T20:09:47.764Z,4.83
2023-03-19T20:12:25.823Z,6.13
2023-03-19T20:14:54.130Z,7.03
2023-03-19T20:17:22.174Z,6.27
2023-03-19T20:19:50.352Z,8.10
2023-03-19T20:22:18.427Z,6.37
2023-03-19T20:24:49.575Z,5.53
2023-03-19T20:27:21.983Z,5.27
2023-03-19T20:29:53.609Z,6.93
2023-03-19T20:32:32.685Z,5.60
2023-03-19T20:35:01.451Z,6.43
2023-03-19T20:37:29.901Z,5.53
2023-03-19T20:39:57.910Z,5.30
2023-03-19T20:42:27.914Z,6.30
2023-03-19T20:45:01.276Z,6.40
2023-03-19T20:47:32.794Z,5.30
2023-03-19T20:50:01.050Z,5.60
2023-03-19T20:52:29.787Z,5.30
2023-03-19T20:54:58.106Z,7.20
2023-03-19T20:57:30.669Z,6.10
2023-03-19T21:00:03.643Z,6.17
2023-03-19T21:02:31.568Z,6.07
2023-03-19T21:04:59.518Z,5.63
2023-03-19T21:07:31.363Z,5.63
2023-03-19T21:09:59.999Z,7.57
2023-03-19T21:12:29.884Z,7.13
2023-03-19T21:14:59.660Z,7.33
2023-03-19T21:17:28.675Z,6.40
2023-03-19T21:19:57.060Z,6.83
2023-03-19T21:22:28.389Z,7.53
2023-03-19T21:25:03.116Z,6.97
2023-03-19T21:27:31.967Z,6.53
2023-03-19T21:30:01.457Z,6.83
2023-03-19T21:32:29.380Z,5.43
2023-03-19T21:34:57.349Z,6.03
2023-03-19T21:37:25.404Z,7.37
2023-03-19T21:39:53.267Z,5.53
2023-03-19T21:42:23.537Z,6.83
2023-03-19T21:44:59.012Z,9.97
2023-03-19T21:47:28.382Z,8.13
2023-03-19T21:49:56.459Z,6.53
2023-03-19T21:52:24.823Z,6.63
2023-03-19T21:54:52.719Z,6.30
2023-03-19T21:57:20.666Z,7.00
2023-03-19T21:59:48.698Z,7.33
2023-03-19T22:02:43.046Z,6.50
2023-03-19T22:05:23.610Z,7.47
2023-03-19T22:07:51.732Z,7.60
2023-03-19T22:10:21.649Z,6.07
2023-03-19T22:12:50.567Z,6.43
2023-03-19T22:15:23.313Z,6.93
2023-03-19T22:17:52.605Z,7.13
2023-03-19T22:20:23.318Z,6.60
2023-03-19T22:22:51.940Z,6.77
2023-03-19T22:25:22.204Z,7.50
2023-03-19T22:27:51.700Z,7.40
2023-03-19T22:30:24.422Z,7.30
2023-03-19T22:32:59.238Z,8.77
2023-03-19T22:35:27.368Z,9.80
2023-03-19T22:37:55.633Z,9.03
2023-03-19T22:40:23.630Z,8.83
2023-03-19T22:42:51.598Z,6.77
2023-03-19T22:45:24.215Z,8.73
2023-03-19T22:47:54.307Z,7.93
2023-03-19T22:50:26.009Z,7.73
2023-03-19T22:52:54.429Z,8.00
2023-03-19T22:55:22.972Z,8.37
2023-03-19T22:57:51.422Z,7.53
2023-03-19T23:00:21.607Z,8.43
2023-03-19T23:02:57.336Z,9.03
2023-03-19T23:05:32.561Z,9.80
2023-03-19T23:08:00.854Z,7.93
2023-03-19T23:10:32.277Z,10.43
2023-03-19T23:13:00.912Z,8.10
2023-03-19T23:15:31.419Z,10.00
2023-03-19T23:18:02.222Z,10.03
2023-03-19T23:20:33.707Z,10.07
2023-03-19T23:23:02.161Z,7.97
2023-03-19T23:25:30.657Z,9.90
2023-03-19T23:28:01.684Z,11.00
2023-03-19T23:30:32.050Z,10.67
2023-03-19T23:33:03.431Z,12.00
2023-03-19T23:35:32.332Z,12.13
2023-03-19T23:38:01.712Z,9.90
2023-03-19T23:40:33.036Z,10.80
2023-03-19T23:43:02.295Z,11.30
2023-03-19T23:45:34.673Z,12.13
2023-03-19T23:48:05.921Z,11.47
2023-03-19T23:50:35.064Z,11.33
2023-03-19T23:53:03.014Z,12.27
2023-03-19T23:55:32.065Z,11.80
2023-03-19T23:58:00.285Z,13.00
